Time;durP1;ratioP1;P1;durP2;ratioP2;P2;SDS_P1;SDS_P2;PMS_P1;PMS_P2;Temp;Humidity;BMP_temperature;BMP_pressure;BME280_temperature;BME280_humidity;BME280_pressure;Samples;Min_cycle;Max_cycle;Signal;HPM_P1;HPM_P2
2021/10/23 00:00:48;;;;;;;0.40;0.40;;;;;;;4.85;63.99;98315.63;5071177;28;20055;-67
2021/10/23 00:03:13;;;;;;;0.40;0.40;;;;;;;4.81;63.49;98306.22;5056499;28;20196;-66
2021/10/23 00:05:39;;;;;;;0.40;0.40;;;;;;;4.89;63.85;98309.00;5073611;28;20090;-66
2021/10/23 00:08:05;;;;;;;0.40;0.40;;;;;;;4.83;63.54;98306.94;5055464;28;20416;-64
2021/10/23 00:10:31;;;;;;;0.40;0.40;;;;;;;4.86;63.83;98320.00;5073573;28;20063;-64
2021/10/23 00:12:57;;;;;;;0.40;0.40;;;;;;;4.83;63.89;98310.44;5038229;28;20105;-63
2021/10/23 00:15:22;;;;;;;0.40;0.40;;;;;;;4.87;64.00;98315.50;5054393;28;20497;-66
2021/10/23 00:17:48;;;;;;;0.40;0.40;;;;;;;4.86;64.08;98314.63;5055318;28;20132;-63
2021/10/23 00:20:14;;;;;;;0.40;0.40;;;;;;;4.90;64.16;98313.38;5073249;28;20056;-65
2021/10/23 00:22:40;;;;;;;0.40;0.40;;;;;;;4.93;64.17;98320.25;5073086;28;20122;-67
2021/10/23 00:25:07;;;;;;;0.40;0.40;;;;;;;4.87;64.08;98311.00;5073203;28;20064;-64
2021/10/23 00:27:32;;;;;;;0.40;0.40;;;;;;;4.95;64.51;98329.00;5072764;28;20056;-69
2021/10/23 00:29:59;;;;;;;0.40;0.40;;;;;;;4.94;64.39;98322.78;5055336;28;20070;-63
2021/10/23 00:32:26;;;;;;;0.40;0.40;;;;;;;4.87;64.57;98311.00;5054298;28;20493;-67
2021/10/23 00:34:51;;;;;;;0.40;0.40;;;;;;;4.96;64.66;98328.81;5055047;28;20060;-66
2021/10/23 00:37:17;;;;;;;0.40;0.40;;;;;;;4.96;64.27;98315.44;5072033;28;20048;-64
2021/10/23 00:39:43;;;;;;;0.40;0.40;;;;;;;4.97;64.62;98322.50;5038734;28;20052;-64
2021/10/23 00:42:09;;;;;;;0.40;0.40;;;;;;;4.97;64.73;98309.13;5072665;28;20059;-64
2021/10/23 00:44:37;;;;;;;0.40;0.40;;;;;;;4.91;64.86;98290.97;5072358;28;20489;-64
2021/10/23 00:47:21;;;;;;;0.40;0.40;;;;;;;4.98;64.84;98308.13;5071907;28;20147;-63
2021/10/23 00:49:52;;;;;;;0.40;0.40;;;;;;;4.98;65.02;98308.13;5071248;28;20485;-63
2021/10/23 00:52:23;;;;;;;0.40;0.40;;;;;;;4.99;65.13;98300.91;5071928;28;20452;-66
2021/10/23 00:54:50;;;;;;;0.40;0.40;;;;;;;5.03;64.87;98316.53;5070744;28;20055;-65
2021/10/23 00:57:16;;;;;;;0.40;0.40;;;;;;;5.01;64.67;98313.19;5072733;28;20486;-63
2021/10/23 00:59:42;;;;;;;0.40;0.40;;;;;;;4.98;64.82;98312.63;5053573;28;20048;-63
2021/10/23 01:02:08;;;;;;;0.40;0.40;;;;;;;5.02;65.17;98311.34;5071042;28;20163;-63
2021/10/23 01:04:35;;;;;;;0.40;0.40;;;;;;;5.05;65.01;98305.69;5071261;28;20080;-68
2021/10/23 01:07:01;;;;;;;0.40;0.40;;;;;;;5.05;65.14;98314.56;5071513;28;20048;-65
2021/10/23 01:09:27;;;;;;;0.40;0.40;;;;;;;5.08;64.61;98324.13;5036930;28;20048;-63
2021/10/23 01:11:54;;;;;;;0.40;0.40;;;;;;;5.12;64.32;98313.94;5070920;28;20048;-62
2021/10/23 01:14:24;;;;;;;0.40;0.40;;;;;;;5.14;64.58;98312.81;5071238;28;20096;-65
2021/10/23 01:16:53;;;;;;;0.40;0.40;;;;;;;5.17;64.17;98317.03;5068912;28;20067;-65
2021/10/23 01:19:19;;;;;;;0.40;0.40;;;;;;;5.19;64.07;98315.91;5070767;28;20299;-65
2021/10/23 01:21:48;;;;;;;0.40;0.40;;;;;;;5.22;63.88;98320.09;5070790;28;20532;-63
2021/10/23 01:24:14;;;;;;;0.40;0.40;;;;;;;5.19;64.50;98309.69;5053448;28;20135;-63
2021/10/23 01:26:40;;;;;;;0.40;0.40;;;;;;;5.22;64.55;98314.72;5070855;28;20048;-63
2021/10/23 01:29:10;;;;;;;0.40;0.40;;;;;;;5.20;64.58;98314.06;5070321;28;20045;-65
2021/10/23 01:31:36;;;;;;;0.40;0.40;;;;;;;5.23;64.36;98322.63;5069012;28;20135;-66
2021/10/23 01:34:21;;;;;;;0.40;0.40;;;;;;;5.29;64.07;98334.56;5052751;28;20050;-64
2021/10/23 01:36:50;;;;;;;0.40;0.40;;;;;;;5.33;63.81;98333.28;5070123;28;20056;-64
2021/10/23 01:39:16;;;;;;;0.40;0.40;;;;;;;5.37;63.91;98328.47;5070222;28;20492;-64
2021/10/23 01:41:42;;;;;;;0.40;0.40;;;;;;;5.35;64.09;98331.31;5035444;28;20457;-65
2021/10/23 01:44:10;;;;;;;0.40;0.40;;;;;;;5.37;63.94;98318.59;5052434;28;20063;-65
2021/10/23 01:46:35;;;;;;;0.40;0.40;;;;;;;5.41;64.07;98330.72;5069949;28;20086;-63
2021/10/23 01:49:02;;;;;;;0.40;0.40;;;;;;;5.41;64.24;98320.00;5052025;28;20133;-63
2021/10/23 01:51:28;;;;;;;0.40;0.40;;;;;;;5.41;63.91;98325.34;5052128;28;20108;-64
2021/10/23 01:53:54;;;;;;;0.40;0.40;;;;;;;5.42;63.80;98316.31;5052188;28;20052;-65
2021/10/23 01:56:20;;;;;;;0.40;0.40;;;;;;;5.46;63.82;98322.22;5036035;28;20125;-65
2021/10/23 01:58:46;;;;;;;0.40;0.40;;;;;;;5.49;63.71;98328.13;5069897;28;20063;-65
2021/10/23 02:01:11;;;;;;;0.40;0.40;;;;;;;5.47;63.78;98319.38;5069836;28;20056;-63
2021/10/23 02:03:37;;;;;;;0.40;0.40;;;;;;;5.53;63.85;98329.50;5073647;28;20571;-63
2021/10/23 02:06:08;;;;;;;0.40;0.40;;;;;;;5.59;63.53;98332.53;5073020;28;20055;-64
2021/10/23 02:08:33;;;;;;;0.40;0.40;;;;;;;5.59;63.06;98325.34;5072166;28;20060;-64
2021/10/23 02:10:59;;;;;;;0.40;0.40;;;;;;;5.59;63.38;98327.19;5070165;28;20110;-68
2021/10/23 02:13:25;;;;;;;0.40;0.40;;;;;;;5.62;63.16;98326.88;5069563;28;20056;-64
2021/10/23 02:15:50;;;;;;;0.35;0.35;;;;;;;5.62;63.34;98326.88;5070250;28;20560;-62
2021/10/23 02:18:16;;;;;;;0.40;0.40;;;;;;;5.64;63.34;98330.28;5071572;28;20060;-63
2021/10/23 02:20:42;;;;;;;0.40;0.40;;;;;;;5.64;63.09;98324.91;5055270;28;20625;-65
2021/10/23 02:23:07;;;;;;;0.40;0.40;;;;;;;5.60;63.31;98318.16;5072024;28;20086;-63
2021/10/23 02:25:34;;;;;;;0.40;0.40;;;;;;;5.65;63.55;98331.94;5073205;28;20704;-66
2021/10/23 02:28:00;;;;;;;0.40;0.40;;;;;;;5.59;63.22;98321.81;5073186;28;20473;-62
2021/10/23 02:30:26;;;;;;;0.40;0.40;;;;;;;5.66;63.46;98328.25;5053886;28;20113;-64
2021/10/23 02:32:52;;;;;;;0.40;0.40;;;;;;;5.65;63.26;98315.84;5069944;28;20136;-62
2021/10/23 02:35:19;;;;;;;0.30;0.30;;;;;;;5.67;63.28;98329.97;5069442;28;20056;-63
2021/10/23 02:37:45;;;;;;;0.40;0.40;;;;;;;5.61;63.49;98323.38;5069359;28;20068;-63
2021/10/23 02:40:12;;;;;;;0.40;0.40;;;;;;;5.66;63.63;98317.53;5068989;28;20056;-65
2021/10/23 02:42:38;;;;;;;0.40;0.40;;;;;;;5.63;63.66;98321.38;5051019;28;20121;-63
2021/10/23 02:45:05;;;;;;;0.40;0.40;;;;;;;5.69;63.26;98330.63;5067685;28;20147;-66
2021/10/23 02:47:32;;;;;;;0.40;0.40;;;;;;;5.68;63.76;98328.97;5051354;28;20059;-63
2021/10/23 02:49:58;;;;;;;0.40;0.40;;;;;;;5.70;63.90;98329.63;5069397;28;20057;-63
2021/10/23 02:52:25;;;;;;;0.40;0.40;;;;;;;5.67;63.42;98324.59;5069546;28;20059;-64
2021/10/23 02:54:50;;;;;;;0.40;0.40;;;;;;;5.70;63.81;98335.00;5068923;28;20546;-63
2021/10/23 02:57:17;;;;;;;0.40;0.40;;;;;;;5.68;63.56;98334.31;5053393;28;20040;-63
2021/10/23 02:59:43;;;;;;;0.40;0.40;;;;;;;5.71;63.61;98331.34;5071342;28;20049;-62
2021/10/23 03:02:09;;;;;;;0.40;0.40;;;;;;;5.68;63.90;98331.66;5068948;28;20044;-64
2021/10/23 03:04:35;;;;;;;0.40;0.40;;;;;;;5.66;64.20;98336.31;5067779;28;20590;-66
2021/10/23 03:07:01;;;;;;;0.40;0.40;;;;;;;5.63;64.18;98336.59;5051130;28;20127;-64
2021/10/23 03:09:27;;;;;;;0.40;0.40;;;;;;;5.65;63.71;98331.94;5069226;28;20076;-64
2021/10/23 03:11:52;;;;;;;0.40;0.40;;;;;;;5.65;64.06;98331.94;5069291;28;20067;-63
2021/10/23 03:14:18;;;;;;;0.40;0.40;;;;;;;5.64;64.15;98331.09;5069665;28;20068;-64
2021/10/23 03:16:44;;;;;;;0.40;0.40;;;;;;;5.69;63.93;98338.69;5067600;28;20169;-64
2021/10/23 03:19:09;;;;;;;0.40;0.40;;;;;;;5.66;63.78;98352.38;5067888;28;20053;-64
2021/10/23 03:21:35;;;;;;;0.40;0.40;;;;;;;5.66;63.79;98338.97;5069431;28;20048;-63
2021/10/23 03:24:01;;;;;;;0.40;0.40;;;;;;;5.67;63.84;98346.06;5070496;28;20135;-66
2021/10/23 03:26:26;;;;;;;0.40;0.40;;;;;;;5.66;64.08;98345.19;5072994;28;20105;-65
2021/10/23 03:28:52;;;;;;;0.40;0.40;;;;;;;5.66;63.79;98339.81;5054437;28;20508;-66
2021/10/23 03:31:18;;;;;;;0.40;0.40;;;;;;;5.64;64.14;98332.94;5073026;28;20092;-64
2021/10/23 03:33:44;;;;;;;0.40;0.40;;;;;;;5.66;64.25;98344.34;5072666;28;20509;-63
2021/10/23 03:36:09;;;;;;;0.40;0.40;;;;;;;5.64;63.81;98341.00;5072457;28;20048;-65
2021/10/23 03:38:35;;;;;;;0.40;0.40;;;;;;;5.63;64.44;98339.28;5072283;28;20424;-64
2021/10/23 03:41:01;;;;;;;0.40;0.40;;;;;;;5.58;64.39;98337.06;5072068;28;20279;-65
2021/10/23 03:43:27;;;;;;;0.40;0.40;;;;;;;5.60;64.70;98339.63;5054194;28;20055;-65
2021/10/23 03:45:52;;;;;;;0.40;0.40;;;;;;;5.56;64.54;98345.28;5070876;28;20483;-62
2021/10/23 03:48:18;;;;;;;0.40;0.40;;;;;;;5.57;64.39;98341.59;5073505;28;20075;-64
2021/10/23 03:50:44;;;;;;;0.38;0.38;;;;;;;5.56;64.44;98347.13;5074214;28;20083;-63
2021/10/23 03:53:10;;;;;;;0.40;0.40;;;;;;;5.49;64.19;98338.84;5073858;28;20061;-65
2021/10/23 03:55:36;;;;;;;0.40;0.40;;;;;;;5.52;64.61;98349.25;5056229;28;20495;-63
2021/10/23 03:58:04;;;;;;;0.40;0.40;;;;;;;5.51;64.36;98347.53;5072850;28;20056;-65
2021/10/23 04:00:29;;;;;;;0.40;0.40;;;;;;;5.51;64.43;98352.06;5055421;28;20167;-66
2021/10/23 04:02:55;;;;;;;0.40;0.40;;;;;;;5.52;65.04;98351.94;5072202;28;20088;-65
2021/10/23 04:05:21;;;;;;;0.30;0.30;;;;;;;5.49;64.50;98344.19;5054220;28;20098;-64
2021/10/23 04:07:47;;;;;;;0.40;0.40;;;;;;;5.47;64.94;98346.16;5053896;28;20060;-64
2021/10/23 04:10:12;;;;;;;0.40;0.40;;;;;;;5.47;65.13;98351.53;5072237;28;20053;-65
2021/10/23 04:12:38;;;;;;;0.40;0.40;;;;;;;5.49;64.99;98349.56;5053712;28;20436;-64
2021/10/23 04:15:04;;;;;;;0.40;0.40;;;;;;;5.45;65.44;98342.81;5053825;28;20084;-65
2021/10/23 04:17:30;;;;;;;0.40;0.40;;;;;;;5.50;65.15;98356.59;5072220;28;20048;-63
2021/10/23 04:19:56;;;;;;;0.40;0.40;;;;;;;5.50;65.44;98351.22;5073023;28;20105;-65
2021/10/23 04:22:22;;;;;;;0.40;0.40;;;;;;;5.51;65.26;98360.94;5072900;28;20076;-66
2021/10/23 04:24:48;;;;;;;0.40;0.40;;;;;;;5.50;65.92;98367.31;5054263;28;20056;-63
2021/10/23 04:27:14;;;;;;;0.40;0.40;;;;;;;5.51;65.98;98363.63;5071978;28;20447;-64
2021/10/23 04:29:40;;;;;;;0.40;0.40;;;;;;;5.53;66.12;98372.38;5036696;28;20161;-65
2021/10/23 04:32:05;;;;;;;0.40;0.40;;;;;;;5.54;66.15;98367.84;5072010;28;20064;-63
2021/10/23 04:34:31;;;;;;;0.40;0.40;;;;;;;5.51;65.99;98371.66;5073622;28;20443;-67
2021/10/23 04:36:57;;;;;;;0.40;0.40;;;;;;;5.49;65.88;98371.00;5071646;28;20064;-65
2021/10/23 04:39:23;;;;;;;0.40;0.40;;;;;;;5.54;66.40;98367.84;5071422;28;20109;-65
2021/10/23 04:41:49;;;;;;;0.40;0.40;;;;;;;5.45;66.23;98358.91;5053008;28;20052;-63
2021/10/23 04:44:15;;;;;;;0.40;0.40;;;;;;;5.48;66.86;98366.59;5071438;28;20564;-64
2021/10/23 04:46:41;;;;;;;0.45;0.45;;;;;;;5.47;66.67;98370.28;5053254;28;20593;-63
2021/10/23 04:49:06;;;;;;;0.40;0.40;;;;;;;5.50;66.72;98372.66;5071172;28;20108;-66
2021/10/23 04:51:32;;;;;;;0.40;0.40;;;;;;;5.50;66.57;98372.66;5036575;28;20141;-65
2021/10/23 04:53:58;;;;;;;0.40;0.40;;;;;;;5.53;66.84;98372.38;5069615;28;20132;-65
2021/10/23 04:56:23;;;;;;;0.40;0.40;;;;;;;5.54;67.14;98378.56;5071210;28;20075;-67
2021/10/23 04:58:49;;;;;;;0.40;0.40;;;;;;;5.57;67.16;98373.75;5070972;28;20068;-67
2021/10/23 05:01:15;;;;;;;0.40;0.40;;;;;;;5.54;67.01;98375.91;5052985;28;20500;-67
2021/10/23 05:03:41;;;;;;;0.50;0.50;;;;;;;5.62;67.21;98385.84;5070770;28;20134;-66
2021/10/23 05:06:06;;;;;;;0.70;0.70;;;;;;;6.15;65.24;98377.03;5070744;28;20071;-64
2021/10/23 05:08:32;;;;;;;0.50;0.50;;;;;;;6.19;64.95;98383.78;5052567;28;20215;-64
2021/10/23 05:10:58;;;;;;;0.40;0.40;;;;;;;5.82;66.13;98375.88;5070900;28;20049;-64
2021/10/23 05:13:24;;;;;;;0.60;0.60;;;;;;;5.97;65.96;98380.56;5052372;28;20103;-66
2021/10/23 05:15:49;;;;;;;0.55;0.55;;;;;;;5.87;66.23;98395.84;5070618;28;20514;-68
2021/10/23 05:18:15;;;;;;;0.50;0.50;;;;;;;5.80;66.40;98397.44;5052335;28;20052;-66
2021/10/23 05:20:41;;;;;;;0.60;0.60;;;;;;;5.95;66.14;98390.59;5052484;28;20048;-65
2021/10/23 05:23:07;;;;;;;0.40;0.40;;;;;;;5.87;66.23;98369.03;5069490;28;20068;-70
2021/10/23 05:25:33;;;;;;;0.70;0.70;;;;;;;6.26;65.62;98384.84;5052521;28;20391;-66
2021/10/23 05:27:59;;;;;;;0.80;0.80;;;;;;;6.78;63.19;98374.13;5052630;28;20053;-71
2021/10/23 05:30:24;;;;;;;0.88;0.88;;;;;;;7.20;61.35;98378.69;5019522;28;20056;-70
2021/10/23 05:32:50;;;;;;;0.90;0.90;;;;;;;7.58;60.31;98382.72;5055340;28;20135;-68
2021/10/23 05:35:16;;;;;;;0.80;0.80;;;;;;;7.80;59.27;98383.97;5060779;28;20134;-66
2021/10/23 05:37:43;;;;;;;0.88;0.88;;;;;;;8.05;58.67;98384.03;5086521;28;20476;-68
2021/10/23 05:40:09;;;;;;;0.90;0.90;;;;;;;8.26;58.26;98380.81;5072175;28;20166;-69
2021/10/23 05:42:35;;;;;;;0.80;0.80;;;;;;;8.57;56.54;98378.31;5064379;28;20060;-68
2021/10/23 05:45:01;;;;;;;0.90;0.90;;;;;;;9.00;55.70;98384.31;5078711;28;20040;-76
2021/10/23 05:47:28;;;;;;;0.90;0.90;;;;;;;9.13;54.71;98384.59;5056371;28;20052;-65
2021/10/23 05:49:54;;;;;;;0.88;0.88;;;;;;;9.30;54.07;98380.84;5045214;28;20048;-74
2021/10/23 05:52:20;;;;;;;0.80;0.80;;;;;;;9.55;53.24;98373.50;5078991;28;20468;-72
2021/10/23 05:54:46;;;;;;;0.80;0.80;;;;;;;9.30;53.24;98380.84;5053745;28;20075;-70
2021/10/23 05:57:12;;;;;;;0.90;0.90;;;;;;;9.70;52.90;98389.78;5025761;28;20102;-76
2021/10/23 05:59:41;;;;;;;1.00;1.00;;;;;;;10.03;51.53;98403.09;5072167;28;20048;-73
2021/10/23 06:02:22;;;;;;;0.90;0.90;;;;;;;9.37;52.35;98397.19;5019364;28;20277;-70
2021/10/23 06:04:56;;;;;;;1.00;1.00;;;;;;;10.22;50.63;98402.59;5034997;28;20060;-76
2021/10/23 06:07:26;;;;;;;1.20;1.20;;;;;;;9.62;51.30;98411.41;5065129;28;20360;-70
2021/10/23 06:09:53;;;;;;;0.40;0.40;;;;;;;8.89;53.58;98402.53;5037455;28;20052;-75
2021/10/23 06:12:19;;;;;;;0.30;0.30;;;;;;;8.18;55.41;98392.41;5047723;28;20044;-74
2021/10/23 06:14:46;;;;;;;0.40;0.40;;;;;;;7.57;57.52;98407.06;5029599;28;20356;-74
2021/10/23 06:17:11;;;;;;;0.40;0.40;;;;;;;7.35;58.03;98416.56;5072911;28;20408;-74
2021/10/23 06:19:38;;;;;;;0.40;0.40;;;;;;;7.34;58.48;98404.97;5064179;28;20056;-75
2021/10/23 06:22:05;;;;;;;0.40;0.40;;;;;;;7.41;58.33;98405.19;5037986;28;20064;-73
2021/10/23 06:24:31;;;;;;;0.40;0.40;;;;;;;7.17;59.31;98406.78;5063666;28;20153;-73
2021/10/23 06:26:57;;;;;;;0.50;0.50;;;;;;;7.20;58.55;98410.97;5038650;28;20078;-76
2021/10/23 06:29:23;;;;;;;0.40;0.40;;;;;;;7.18;58.66;98399.53;5017169;28;20417;-76
2021/10/23 06:31:49;;;;;;;0.40;0.40;;;;;;;6.95;59.15;98416.22;5042752;28;20052;-74
2021/10/23 06:34:15;;;;;;;0.40;0.40;;;;;;;6.95;59.53;98424.28;5065353;28;20051;-78
2021/10/23 06:36:41;;;;;;;0.45;0.45;;;;;;;7.01;59.44;98426.31;5037543;28;20126;-80
2021/10/23 06:39:06;;;;;;;0.47;0.47;;;;;;;7.00;59.88;98410.34;5055908;28;20068;-76
2021/10/23 06:41:35;;;;;;;0.50;0.50;;;;;;;6.97;59.61;98416.88;5058136;28;20176;-77
2021/10/23 06:44:09;;;;;;;0.40;0.40;;;;;;;6.93;59.72;98420.91;5078719;28;20155;-77
2021/10/23 06:46:35;;;;;;;0.40;0.40;;;;;;;6.79;60.06;98418.78;5059702;28;20052;-74
2021/10/23 06:49:05;;;;;;;0.40;0.40;;;;;;;6.94;59.89;98422.56;5052535;28;20048;-73
2021/10/23 06:51:31;;;;;;;0.40;0.40;;;;;;;6.74;60.00;98429.16;5068643;28;20056;-73
2021/10/23 06:53:58;;;;;;;0.40;0.40;;;;;;;6.69;60.43;98428.78;5056298;28;20424;-73
2021/10/23 06:56:24;;;;;;;0.40;0.40;;;;;;;6.83;60.21;98425.53;5070062;28;20052;-72
2021/10/23 06:58:50;;;;;;;0.40;0.40;;;;;;;6.81;60.21;98416.78;5087292;28;20063;-73
2021/10/23 07:01:16;;;;;;;0.60;0.60;;;;;;;6.74;60.24;98431.84;5040915;28;20060;-72
2021/10/23 07:03:42;;;;;;;0.40;0.40;;;;;;;6.62;60.76;98430.41;5074180;28;20142;-72
2021/10/23 07:06:08;;;;;;;0.47;0.47;;;;;;;6.71;60.71;98424.94;5036106;28;20540;-71
2021/10/23 07:08:34;;;;;;;0.40;0.40;;;;;;;6.63;61.22;98424.06;5054050;28;20641;-71
2021/10/23 07:11:00;;;;;;;0.40;0.40;;;;;;;6.63;60.86;98438.31;5056412;28;20150;-72
2021/10/23 07:13:26;;;;;;;0.40;0.40;;;;;;;6.46;61.11;98429.28;5074192;28;20048;-71
2021/10/23 07:15:52;;;;;;;0.40;0.40;;;;;;;6.52;60.90;98422.47;5081984;28;20499;-76
2021/10/23 07:18:18;;;;;;;0.40;0.40;;;;;;;6.54;61.12;98425.81;5040849;28;20082;-73
2021/10/23 07:20:44;;;;;;;0.40;0.40;;;;;;;6.69;61.01;98436.84;5056435;28;20056;-72
2021/10/23 07:23:10;;;;;;;0.40;0.40;;;;;;;6.71;60.62;98438.38;5057095;28;20507;-73
2021/10/23 07:25:36;;;;;;;0.40;0.40;;;;;;;6.83;60.50;98447.00;5089590;28;20059;-77
2021/10/23 07:28:02;;;;;;;0.40;0.40;;;;;;;6.74;60.73;98437.22;5071357;28;20180;-79
2021/10/23 07:30:28;;;;;;;0.40;0.40;;;;;;;6.89;60.44;98438.34;5061721;28;20028;-75
2021/10/23 07:32:54;;;;;;;0.50;0.50;;;;;;;6.77;60.38;98431.53;5055479;28;20076;-76
2021/10/23 07:35:19;;;;;;;0.47;0.47;;;;;;;6.78;60.66;98433.22;5061845;28;20125;-76
2021/10/23 07:37:45;;;;;;;0.40;0.40;;;;;;;6.70;61.11;98439.38;5022000;28;20059;-77
2021/10/23 07:40:13;;;;;;;0.40;0.40;;;;;;;6.62;61.08;98438.47;5052269;28;20131;-78
2021/10/23 07:42:39;;;;;;;0.40;0.40;;;;;;;6.57;61.67;98440.78;5076426;28;20056;-75
2021/10/23 07:45:07;;;;;;;0.45;0.45;;;;;;;6.48;61.95;98446.09;5074081;28;20537;-76
2021/10/23 07:47:39;;;;;;;0.40;0.40;;;;;;;6.57;61.80;98441.63;5024883;28;20467;-75
2021/10/23 07:50:07;;;;;;;0.40;0.40;;;;;;;6.52;62.01;98439.41;5052075;28;20106;-75
2021/10/23 07:52:33;;;;;;;0.40;0.40;;;;;;;6.56;61.65;98457.91;5070538;28;20092;-74
2021/10/23 07:54:59;;;;;;;0.40;0.40;;;;;;;6.58;61.92;98437.09;5066241;28;20044;-79
2021/10/23 07:57:25;;;;;;;0.40;0.40;;;;;;;6.68;61.59;98449.41;5081696;28;20079;-73
2021/10/23 07:59:51;;;;;;;0.40;0.40;;;;;;;6.61;61.76;98447.53;5027899;28;20417;-69
2021/10/23 08:02:17;;;;;;;0.40;0.40;;;;;;;6.53;62.29;98454.50;5090516;28;20079;-69
2021/10/23 08:04:43;;;;;;;0.45;0.45;;;;;;;6.65;61.64;98465.00;5074213;28;20044;-70
2021/10/23 08:07:09;;;;;;;0.50;0.50;;;;;;;6.76;61.82;98454.00;5069023;28;20109;-71
2021/10/23 08:09:36;;;;;;;0.50;0.50;;;;;;;6.66;61.79;98447.91;5088363;28;20062;-69
2021/10/23 08:17:52;;;;;;;0.50;0.50;;;;;;;6.90;60.62;98458.81;5082508;28;20067;-71
2021/10/23 08:20:57;;;;;;;0.50;0.50;;;;;;;7.10;60.58;98450.56;5093998;28;20131;-72
2021/10/23 08:23:24;;;;;;;0.45;0.45;;;;;;;7.11;60.47;98455.78;5058989;28;20516;-72
2021/10/23 08:25:54;;;;;;;0.50;0.50;;;;;;;7.04;60.05;98453.88;5053721;28;20070;-72
2021/10/23 08:28:22;;;;;;;0.40;0.40;;;;;;;7.11;60.38;98454.94;5063267;28;20139;-68
2021/10/23 08:30:48;;;;;;;0.50;0.50;;;;;;;7.09;60.19;98462.28;5080575;28;20530;-71
2021/10/23 08:33:14;;;;;;;0.43;0.43;;;;;;;7.16;59.70;98468.72;5062876;28;20048;-71
2021/10/23 08:35:39;;;;;;;0.40;0.40;;;;;;;7.25;60.04;98467.78;5066960;28;20083;-72
2021/10/23 08:38:06;;;;;;;0.40;0.40;;;;;;;7.18;59.64;98466.72;5033838;28;20051;-70
2021/10/23 08:40:32;;;;;;;0.40;0.40;;;;;;;7.23;60.44;98472.47;5073807;28;20044;-71
2021/10/23 08:42:58;;;;;;;0.40;0.40;;;;;;;7.14;59.91;98476.13;5063993;28;20052;-74
2021/10/23 08:45:24;;;;;;;0.50;0.50;;;;;;;7.04;60.46;98465.47;5055398;28;20149;-75
2021/10/23 08:47:50;;;;;;;0.40;0.40;;;;;;;7.17;60.66;98470.44;5052749;28;20052;-77
2021/10/23 08:50:21;;;;;;;0.50;0.50;;;;;;;7.17;60.24;98468.59;5065753;28;20471;-79
2021/10/23 08:52:49;;;;;;;0.50;0.50;;;;;;;7.20;60.55;98470.97;5064090;28;20044;-73
2021/10/23 08:55:17;;;;;;;0.40;0.40;;;;;;;7.22;60.84;98468.94;5065768;28;20041;-72
2021/10/23 08:57:44;;;;;;;0.50;0.50;;;;;;;7.28;60.44;98480.91;5065950;28;20058;-73
2021/10/23 09:00:10;;;;;;;0.50;0.50;;;;;;;7.33;60.36;98470.50;5037161;28;20354;-72
2021/10/23 09:08:22;;;;;;;0.50;0.50;;;;;;;7.40;60.97;98474.25;5086331;28;20103;-78
2021/10/23 09:10:50;;;;;;;0.60;0.60;;;;;;;7.60;60.94;98466.75;5031624;28;20057;-73
2021/10/23 09:13:46;;;;;;;0.50;0.50;;;;;;;7.65;61.29;98475.22;5023117;28;20041;-74
2021/10/23 09:16:17;;;;;;;0.60;0.60;;;;;;;7.64;61.52;98468.16;5044951;28;20083;-72
2021/10/23 09:18:46;;;;;;;0.60;0.60;;;;;;;7.64;61.63;98472.66;5030645;28;20179;-74
2021/10/23 09:21:20;;;;;;;0.60;0.60;;;;;;;7.83;61.14;98464.34;4996628;28;20103;-69
2021/10/23 09:23:50;;;;;;;0.65;0.65;;;;;;;8.17;59.99;98463.44;5053137;28;20123;-72
2021/10/23 09:26:50;;;;;;;0.70;0.70;;;;;;;9.75;54.99;98473.72;5051110;28;20056;-72
2021/10/23 09:29:20;;;;;;;1.50;1.50;;;;;;;9.78;54.11;98470.69;4986908;28;20493;-71
2021/10/23 09:31:48;;;;;;;0.70;0.70;;;;;;;9.97;53.17;98468.56;5031813;28;20287;-74
2021/10/23 09:34:22;;;;;;;1.40;1.40;;;;;;;10.97;50.41;98460.47;5066227;28;20040;-71
2021/10/23 09:36:54;;;;;;;0.45;0.45;;;;;;;11.79;47.66;98455.84;5082820;28;20508;-70
2021/10/23 09:39:41;;;;;;;0.40;0.40;;;;;;;11.21;49.09;98462.94;5047818;28;20078;-70
2021/10/23 09:42:18;;;;;;;0.50;0.50;;;;;;;10.17;51.37;98453.63;5063911;28;20359;-75
2021/10/23 09:45:03;;;;;;;0.50;0.50;;;;;;;10.08;52.08;98466.31;5085057;28;20052;-74
2021/10/23 09:47:39;;;;;;;0.60;0.60;;;;;;;9.90;52.11;98482.78;5053498;28;20051;-75
2021/10/23 09:50:15;;;;;;;0.50;0.50;;;;;;;10.48;50.97;98471.69;5070764;28;20048;-75
2021/10/23 09:53:04;;;;;;;0.50;0.50;;;;;;;10.36;50.78;98469.41;5087093;28;20506;-74
2021/10/23 09:55:35;;;;;;;1.40;1.40;;;;;;;10.19;51.15;98462.38;5050228;28;20134;-75
2021/10/23 10:05:30;;;;;;;0.60;0.60;;;;;;;9.35;53.59;98470.16;5106761;22;20059;-68
2021/10/23 10:07:56;;;;;;;0.60;0.60;;;;;;;9.23;53.84;98460.75;5036368;28;20098;-70
2021/10/23 10:10:22;;;;;;;0.70;0.70;;;;;;;9.87;52.37;98475.06;5062341;28;20043;-67
2021/10/23 10:12:48;;;;;;;1.70;1.70;;;;;;;11.32;48.61;98464.34;5052312;28;20567;-64
2021/10/23 10:15:14;;;;;;;1.52;1.52;;;;;;;11.81;46.71;98466.50;5018861;28;20056;-72
2021/10/23 10:17:41;;;;;;;1.17;1.17;;;;;;;12.50;44.71;98474.22;5036761;28;20149;-67
2021/10/23 10:20:11;;;;;;;0.50;0.50;;;;;;;11.17;47.67;98467.03;5054593;28;20045;-69
2021/10/23 10:22:53;;;;;;;1.40;1.40;;;;;;;12.91;44.03;98473.59;5073070;28;20037;-70
2021/10/23 10:25:22;;;;;;;1.00;1.00;;;;;;;12.95;43.35;98477.59;5053731;28;20449;-73
2021/10/23 10:27:48;;;;;;;0.40;0.40;;;;;;;11.91;45.42;98490.59;5070419;28;20059;-71
2021/10/23 10:30:29;;;;;;;1.30;1.30;;;;;;;12.55;44.77;98469.91;5052000;28;20040;-70
2021/10/23 10:33:31;;;;;;;0.40;0.40;;;;;;;11.58;47.14;98489.09;5054541;28;20047;-70
2021/10/23 10:36:19;;;;;;;0.30;0.30;;;;;;;10.65;49.05;98494.03;5054176;28;20056;-71
2021/10/23 10:38:58;;;;;;;1.08;1.08;;;;;;;11.90;46.62;98488.94;5054021;28;20080;-71
2021/10/23 10:44:15;;;;;;;0.30;0.30;;;;;;;10.72;49.15;98498.53;5064726;28;20215;-70
2021/10/23 10:47:06;;;;;;;0.20;0.20;;;;;;;10.19;50.18;98494.78;5052667;28;20092;-72
2021/10/23 10:49:50;;;;;;;0.30;0.30;;;;;;;9.50;52.22;98494.56;5003750;28;20598;-71
2021/10/23 10:52:41;;;;;;;0.30;0.30;;;;;;;9.21;52.83;98495.13;5070950;28;20052;-69
2021/10/23 10:55:15;;;;;;;0.50;0.50;;;;;;;9.58;52.35;98502.66;5058684;28;20064;-71
2021/10/23 10:57:57;;;;;;;0.40;0.40;;;;;;;10.49;50.06;98501.22;5040410;28;20605;-74
2021/10/23 11:00:44;;;;;;;0.40;0.40;;;;;;;10.00;51.24;98504.16;5037226;28;20053;-71
2021/10/23 11:03:32;;;;;;;0.50;0.50;;;;;;;10.65;49.96;98513.78;5020058;28;20052;-74
2021/10/23 11:09:11;;;;;;;0.40;0.40;;;;;;;9.55;53.00;98513.78;5052412;28;20977;-72
2021/10/23 11:11:46;;;;;;;0.40;0.40;;;;;;;9.19;53.25;98513.34;5079622;28;20076;-77
2021/10/23 11:16:50;;;;;;;0.40;0.40;;;;;;;8.82;53.85;98528.19;5046764;28;20139;-68
2021/10/23 11:19:31;;;;;;;0.40;0.40;;;;;;;8.67;54.77;98524.47;5044713;28;20516;-72
2021/10/23 11:22:14;;;;;;;0.40;0.40;;;;;;;8.36;55.78;98527.75;5030613;28;20241;-75
2021/10/23 11:24:50;;;;;;;0.30;0.30;;;;;;;8.11;56.29;98518.75;5058953;28;20618;-74
2021/10/23 11:27:25;;;;;;;0.40;0.40;;;;;;;8.08;55.92;98524.50;5062774;28;20070;-69
2021/10/23 11:30:16;;;;;;;0.40;0.40;;;;;;;8.09;56.40;98528.03;5037314;28;20596;-69
2021/10/23 11:33:01;;;;;;;0.90;0.90;;;;;;;9.16;53.45;98535.25;5026542;28;20102;-72
2021/10/23 11:35:36;;;;;;;1.00;1.00;;;;;;;10.85;48.96;98531.19;5040771;28;20071;-69
2021/10/23 11:38:07;;;;;;;1.00;1.00;;;;;;;11.55;47.21;98521.97;5041116;28;20059;-71
2021/10/23 11:40:41;;;;;;;0.90;0.90;;;;;;;11.88;45.85;98539.72;5041074;28;20049;-73
2021/10/23 11:43:11;;;;;;;0.40;0.40;;;;;;;11.53;46.72;98542.13;5037205;28;20101;-69
2021/10/23 11:45:38;;;;;;;0.40;0.40;;;;;;;12.26;45.13;98530.44;5029969;28;20045;-69
2021/10/23 11:48:06;;;;;;;0.40;0.40;;;;;;;10.70;48.54;98524.88;5066531;28;20108;-68
2021/10/23 11:50:36;;;;;;;0.90;0.90;;;;;;;11.37;47.28;98542.25;5044932;28;20052;-69
2021/10/23 11:53:19;;;;;;;0.70;0.70;;;;;;;11.09;47.63;98529.34;5058309;28;20155;-67
2021/10/23 11:55:51;;;;;;;0.70;0.70;;;;;;;11.67;46.05;98533.16;5033283;28;20052;-70
2021/10/23 11:58:20;;;;;;;0.50;0.50;;;;;;;11.51;46.36;98533.31;5074332;28;20626;-71
2021/10/23 12:00:58;;;;;;;0.70;0.70;;;;;;;11.13;47.52;98543.34;5074557;28;20042;-72
2021/10/23 12:03:35;;;;;;;0.40;0.40;;;;;;;10.05;50.06;98530.63;5038255;28;20052;-70
2021/10/23 12:06:19;;;;;;;0.30;0.30;;;;;;;9.34;51.48;98543.16;5074898;28;20950;-69
2021/10/23 12:08:46;;;;;;;0.30;0.30;;;;;;;9.10;52.39;98539.44;5055674;28;20052;-69
2021/10/23 12:11:19;;;;;;;0.30;0.30;;;;;;;8.67;53.42;98546.03;5058067;28;20067;-73
2021/10/23 12:13:57;;;;;;;0.30;0.30;;;;;;;8.65;54.42;98537.25;5026261;28;20270;-73
2021/10/23 12:16:30;;;;;;;0.32;0.32;;;;;;;8.60;54.61;98539.63;5078768;28;20048;-72